Time;durP1;ratioP1;P1;durP2;ratioP2;P2;SDS_P1;SDS_P2;PMS_P1;PMS_P2;Temp;Humidity;BMP_temperature;BMP_pressure;BME280_temperature;BME280_humidity;BME280_pressure;Samples;Min_cycle;Max_cycle;Signal;HPM_P1;HPM_P2
2021/06/03 00:00:06;;;;;;;10.40;9.30;;;;;;;;;;5034577;28;21293;-87
2021/06/03 00:02:33;;;;;;;10.13;9.13;;;;;;;;;;5036385;28;20412;-86
2021/06/03 00:04:59;;;;;;;10.18;9.23;;;;;;;;;;5036146;28;20398;-85
2021/06/03 00:07:26;;;;;;;9.95;9.02;;;;;;;;;;5037927;28;20428;-86
2021/06/03 00:09:52;;;;;;;10.80;9.80;;;;;;;;;;5037972;28;20406;-86
2021/06/03 00:12:18;;;;;;;10.70;9.60;;;;;;;;;;5037137;28;20437;-86
2021/06/03 00:14:45;;;;;;;10.27;9.38;;;;;;;;;;5036365;28;20412;-86
2021/06/03 00:17:13;;;;;;;12.57;9.63;;;;;;;;;;5033633;28;20465;-87
2021/06/03 00:19:39;;;;;;;11.05;9.90;;;;;;;;;;5032923;28;20416;-86
2021/06/03 00:22:06;;;;;;;10.73;9.73;;;;;;;;;;5056057;28;20463;-85
2021/06/03 00:24:33;;;;;;;11.20;10.10;;;;;;;;;;5064108;28;20452;-85
2021/06/03 00:27:00;;;;;;;11.25;10.07;;;;;;;;;;5034483;28;20484;-85
2021/06/03 00:29:27;;;;;;;10.38;9.38;;;;;;;;;;5034019;28;20869;-85
2021/06/03 00:31:53;;;;;;;11.32;10.07;;;;;;;;;;5057085;28;20401;-86
2021/06/03 00:34:21;;;;;;;11.80;10.00;;;;;;;;;;5059678;28;20407;-85
2021/06/03 00:36:47;;;;;;;11.48;10.32;;;;;;;;;;5054447;28;20418;-85
2021/06/03 00:39:14;;;;;;;11.30;10.20;;;;;;;;;;5029844;28;20422;-85
2021/06/03 00:41:40;;;;;;;10.90;9.90;;;;;;;;;;5038472;28;20752;-85
2021/06/03 00:44:07;;;;;;;11.43;10.40;;;;;;;;;;5038481;28;20395;-85
2021/06/03 00:46:33;;;;;;;11.63;10.18;;;;;;;;;;5039114;28;20446;-86
2021/06/03 00:49:00;;;;;;;10.97;9.97;;;;;;;;;;5040609;28;20911;-85
2021/06/03 00:51:28;;;;;;;11.65;10.63;;;;;;;;;;5038217;28;20432;-85
2021/06/03 00:53:55;;;;;;;11.82;10.73;;;;;;;;;;5035833;28;20406;-85
2021/06/03 00:56:21;;;;;;;12.43;11.30;;;;;;;;;;5039836;28;20437;-86
2021/06/03 00:58:48;;;;;;;12.43;11.20;;;;;;;;;;5042517;28;20400;-85
2021/06/03 01:01:14;;;;;;;12.98;11.70;;;;;;;;;;5037236;28;20405;-86
2021/06/03 01:03:41;;;;;;;12.18;11.07;;;;;;;;;;5042990;28;20407;-85
2021/06/03 01:06:09;;;;;;;12.55;11.35;;;;;;;;;;5039393;28;20404;-85
2021/06/03 01:08:40;;;;;;;11.80;10.73;;;;;;;;;;5043473;28;20445;-85
2021/06/03 01:11:14;;;;;;;12.65;11.35;;;;;;;;;;5039618;28;20756;-86
2021/06/03 01:13:51;;;;;;;12.23;11.07;;;;;;;;;;5041987;28;20408;-84
2021/06/03 01:16:19;;;;;;;12.53;11.37;;;;;;;;;;5037126;28;20431;-85
2021/06/03 01:18:46;;;;;;;12.20;11.20;;;;;;;;;;5038616;28;20766;-86
2021/06/03 01:21:16;;;;;;;12.68;11.52;;;;;;;;;;5043367;28;20507;-85
2021/06/03 01:23:53;;;;;;;12.20;11.10;;;;;;;;;;5038782;28;20876;-85
2021/06/03 01:26:21;;;;;;;12.43;11.13;;;;;;;;;;5034263;28;20763;-86
2021/06/03 01:28:48;;;;;;;12.55;11.25;;;;;;;;;;5038301;28;20427;-85
2021/06/03 01:31:15;;;;;;;12.40;11.20;;;;;;;;;;5039490;28;20415;-86
2021/06/03 01:33:42;;;;;;;12.40;11.25;;;;;;;;;;5037836;28;20407;-85
2021/06/03 01:36:12;;;;;;;12.40;11.20;;;;;;;;;;5032549;28;20403;-84
2021/06/03 01:38:41;;;;;;;13.00;11.70;;;;;;;;;;5040012;28;20764;-85
2021/06/03 01:41:10;;;;;;;12.15;10.95;;;;;;;;;;5038481;28;20903;-84
2021/06/03 01:43:41;;;;;;;12.70;11.50;;;;;;;;;;5036261;28;20403;-83
2021/06/03 01:46:08;;;;;;;12.57;11.32;;;;;;;;;;5035948;28;20435;-86
2021/06/03 01:48:35;;;;;;;12.47;11.37;;;;;;;;;;5047975;28;20829;-86
2021/06/03 01:51:05;;;;;;;12.90;11.52;;;;;;;;;;5051126;28;20408;-85
2021/06/03 01:53:32;;;;;;;13.45;11.40;;;;;;;;;;5069227;28;20627;-86
2021/06/03 01:56:03;;;;;;;13.10;11.80;;;;;;;;;;5057169;28;20514;-85
2021/06/03 01:58:31;;;;;;;12.50;11.40;;;;;;;;;;5042426;28;20407;-86
2021/06/03 02:01:00;;;;;;;12.88;11.57;;;;;;;;;;5036077;28;20480;-86
2021/06/03 02:03:28;;;;;;;12.98;11.77;;;;;;;;;;5030567;28;20470;-85
2021/06/03 02:05:55;;;;;;;12.57;11.48;;;;;;;;;;5035462;28;20405;-85
2021/06/03 02:08:22;;;;;;;13.15;11.65;;;;;;;;;;5032050;28;20421;-85
2021/06/03 02:10:49;;;;;;;13.10;11.80;;;;;;;;;;5032459;28;20412;-87
2021/06/03 02:13:18;;;;;;;13.40;12.10;;;;;;;;;;5036788;28;20898;-87
2021/06/03 02:15:52;;;;;;;13.30;12.00;;;;;;;;;;5032774;28;20409;-86
2021/06/03 02:18:23;;;;;;;13.68;12.27;;;;;;;;;;5031618;28;20769;-87
2021/06/03 02:20:52;;;;;;;14.67;12.33;;;;;;;;;;5032933;28;20951;-87
2021/06/03 02:23:19;;;;;;;13.30;12.00;;;;;;;;;;5029623;28;20409;-87
2021/06/03 02:25:46;;;;;;;14.43;12.63;;;;;;;;;;5034960;28;20406;-87
2021/06/03 02:28:14;;;;;;;14.27;12.88;;;;;;;;;;5029772;28;20423;-86
2021/06/03 02:30:42;;;;;;;14.27;12.98;;;;;;;;;;5025056;28;20408;-87
2021/06/03 02:33:10;;;;;;;14.20;12.70;;;;;;;;;;5025923;28;20756;-86
2021/06/03 02:35:39;;;;;;;14.30;13.00;;;;;;;;;;5034036;28;20807;-87
2021/06/03 02:38:05;;;;;;;14.40;12.98;;;;;;;;;;5031830;28;20430;-87
2021/06/03 02:40:32;;;;;;;13.45;12.23;;;;;;;;;;5026160;28;20432;-87
2021/06/03 02:42:59;;;;;;;15.07;13.57;;;;;;;;;;5027968;28;20799;-87
2021/06/03 02:45:27;;;;;;;15.15;13.60;;;;;;;;;;5025488;28;20422;-85
2021/06/03 02:47:55;;;;;;;15.77;14.18;;;;;;;;;;5032822;28;20404;-85
2021/06/03 02:50:24;;;;;;;14.90;13.60;;;;;;;;;;5031194;28;20885;-88
2021/06/03 02:52:52;;;;;;;15.73;14.23;;;;;;;;;;5030433;28;20413;-87
2021/06/03 02:55:21;;;;;;;16.45;14.85;;;;;;;;;;5031057;28;20410;-86
2021/06/03 02:57:48;;;;;;;14.83;13.33;;;;;;;;;;5031427;28;20401;-88
2021/06/03 03:00:18;;;;;;;14.90;13.43;;;;;;;;;;5031910;28;20412;-86
2021/06/03 03:02:44;;;;;;;14.90;13.40;;;;;;;;;;5029341;28;20504;-87
2021/06/03 03:05:12;;;;;;;15.45;13.85;;;;;;;;;;5036704;28;20404;-86
2021/06/03 03:07:39;;;;;;;15.02;13.63;;;;;;;;;;5027253;28;20473;-87
2021/06/03 03:10:11;;;;;;;14.70;13.20;;;;;;;;;;5036379;28;20756;-86
2021/06/03 03:12:38;;;;;;;15.20;13.53;;;;;;;;;;5034646;28;20410;-86
2021/06/03 03:15:05;;;;;;;15.30;13.83;;;;;;;;;;5032869;28;20528;-87
2021/06/03 03:17:32;;;;;;;16.07;14.47;;;;;;;;;;5035465;28;20926;-87
2021/06/03 03:19:58;;;;;;;15.80;14.30;;;;;;;;;;5033226;28;20981;-87
2021/06/03 03:22:25;;;;;;;15.85;14.25;;;;;;;;;;5036048;28;20454;-88
2021/06/03 03:24:51;;;;;;;14.80;13.40;;;;;;;;;;5034588;28;20412;-86
2021/06/03 03:27:19;;;;;;;15.75;14.20;;;;;;;;;;5035928;28;20404;-88
2021/06/03 03:29:46;;;;;;;17.08;15.38;;;;;;;;;;5033507;28;20408;-87
2021/06/03 03:32:12;;;;;;;16.93;15.23;;;;;;;;;;5033540;28;20403;-87
2021/06/03 03:34:38;;;;;;;16.38;14.68;;;;;;;;;;5030109;28;20409;-87
2021/06/03 03:37:05;;;;;;;15.93;14.40;;;;;;;;;;5032804;28;20404;-86
2021/06/03 03:39:32;;;;;;;17.10;15.40;;;;;;;;;;5034115;28;20880;-85
2021/06/03 03:41:58;;;;;;;16.80;15.15;;;;;;;;;;5029854;28;20455;-87
2021/06/03 03:44:26;;;;;;;17.45;15.65;;;;;;;;;;5032916;28;20409;-87
2021/06/03 03:46:53;;;;;;;16.88;15.07;;;;;;;;;;5032788;28;20413;-87
2021/06/03 03:49:19;;;;;;;17.25;15.65;;;;;;;;;;5034289;28;20417;-87
2021/06/03 03:51:46;;;;;;;18.63;15.98;;;;;;;;;;5038285;28;20399;-87
2021/06/03 03:54:12;;;;;;;21.73;17.73;;;;;;;;;;5032206;28;20412;-88
2021/06/03 03:56:39;;;;;;;21.40;18.27;;;;;;;;;;5028416;28;20488;-88
2021/06/03 03:59:05;;;;;;;22.25;18.30;;;;;;;;;;5032005;28;20442;-88
2021/06/03 04:01:33;;;;;;;22.40;18.48;;;;;;;;;;5031031;28;20397;-87
2021/06/03 04:04:00;;;;;;;20.80;17.67;;;;;;;;;;5026714;28;20419;-87
2021/06/03 04:06:26;;;;;;;20.30;17.53;;;;;;;;;;5032310;28;20417;-87
2021/06/03 04:08:53;;;;;;;21.65;18.48;;;;;;;;;;5034147;28;20929;-87
2021/06/03 04:11:23;;;;;;;19.65;17.55;;;;;;;;;;5033198;28;20480;-86
2021/06/03 04:13:49;;;;;;;20.30;18.10;;;;;;;;;;5039198;28;20438;-88
2021/06/03 04:16:16;;;;;;;21.25;17.85;;;;;;;;;;5040208;28;20406;-87
2021/06/03 04:18:43;;;;;;;21.43;17.47;;;;;;;;;;5039536;28;20491;-87
2021/06/03 04:21:10;;;;;;;17.27;15.48;;;;;;;;;;5038314;28;20396;-86
2021/06/03 04:23:36;;;;;;;17.57;15.77;;;;;;;;;;5035605;28;20927;-88
2021/06/03 04:26:03;;;;;;;17.52;14.65;;;;;;;;;;5040255;28;20411;-85
2021/06/03 04:28:30;;;;;;;16.63;14.90;;;;;;;;;;5034672;28;21480;-86
2021/06/03 04:30:56;;;;;;;15.88;14.27;;;;;;;;;;5036782;28;21601;-86
2021/06/03 04:33:23;;;;;;;16.63;14.90;;;;;;;;;;5036969;28;20434;-87
2021/06/03 04:35:51;;;;;;;15.38;13.75;;;;;;;;;;5038903;28;20404;-87
2021/06/03 04:38:18;;;;;;;16.65;14.55;;;;;;;;;;5034006;28;20405;-86
2021/06/03 04:40:45;;;;;;;16.20;14.50;;;;;;;;;;5033864;28;20400;-86
2021/06/03 04:43:11;;;;;;;18.42;13.60;;;;;;;;;;5036297;28;20399;-88
2021/06/03 04:45:38;;;;;;;15.48;13.88;;;;;;;;;;5032328;28;20768;-86
2021/06/03 04:48:06;;;;;;;15.93;13.98;;;;;;;;;;5040943;28;20462;-88
2021/06/03 04:50:32;;;;;;;16.87;13.13;;;;;;;;;;5035241;28;20408;-86
2021/06/03 04:53:01;;;;;;;14.35;12.85;;;;;;;;;;5053287;22;20478;-81
2021/06/03 04:55:28;;;;;;;15.48;12.45;;;;;;;;;;5032238;28;20403;-81
2021/06/03 04:57:55;;;;;;;14.98;12.68;;;;;;;;;;5033721;28;20395;-82
2021/06/03 05:00:25;;;;;;;13.00;11.70;;;;;;;;;;5036855;28;20407;-82
2021/06/03 05:02:54;;;;;;;12.95;11.65;;;;;;;;;;5034923;28;20401;-82
2021/06/03 05:05:21;;;;;;;12.40;11.20;;;;;;;;;;5039930;28;20887;-82
2021/06/03 05:07:47;;;;;;;12.27;11.10;;;;;;;;;;5036848;28;20438;-85
2021/06/03 05:10:17;;;;;;;12.88;11.07;;;;;;;;;;5040681;28;20867;-82
2021/06/03 05:12:44;;;;;;;12.63;11.27;;;;;;;;;;5038605;28;20495;-82
2021/06/03 05:15:12;;;;;;;12.70;10.60;;;;;;;;;;5035853;28;20435;-82
2021/06/03 05:17:39;;;;;;;12.63;10.50;;;;;;;;;;5035543;28;20889;-83
2021/06/03 05:20:09;;;;;;;13.88;10.80;;;;;;;;;;5037137;28;20403;-82
2021/06/03 05:22:36;;;;;;;16.10;11.07;;;;;;;;;;5037967;28;20396;-82
2021/06/03 05:25:03;;;;;;;13.00;11.35;;;;;;;;;;5036269;28;20414;-81
2021/06/03 05:27:31;;;;;;;13.98;12.25;;;;;;;;;;5037952;28;20457;-83
2021/06/03 05:29:57;;;;;;;13.10;11.80;;;;;;;;;;5039476;28;20518;-81
2021/06/03 05:32:24;;;;;;;14.13;12.70;;;;;;;;;;5036824;28;20810;-82
2021/06/03 05:34:50;;;;;;;14.95;13.32;;;;;;;;;;5036446;28;20407;-82
2021/06/03 05:37:17;;;;;;;15.10;13.50;;;;;;;;;;5031878;28;20415;-83
2021/06/03 05:39:44;;;;;;;18.77;14.20;;;;;;;;;;5035605;28;20401;-82
2021/06/03 05:42:10;;;;;;;15.85;14.25;;;;;;;;;;5030188;28;20407;-82
2021/06/03 05:44:38;;;;;;;17.63;15.73;;;;;;;;;;5034364;28;20404;-82
2021/06/03 05:47:05;;;;;;;17.25;15.45;;;;;;;;;;5029913;28;20412;-82
2021/06/03 05:49:31;;;;;;;17.65;15.75;;;;;;;;;;5034309;28;20415;-82
2021/06/03 05:52:02;;;;;;;17.80;15.97;;;;;;;;;;5029161;28;20404;-82
2021/06/03 05:54:28;;;;;;;19.38;15.65;;;;;;;;;;5038073;28;20470;-82
2021/06/03 05:56:55;;;;;;;17.50;15.70;;;;;;;;;;5031870;28;20423;-82
2021/06/03 05:59:21;;;;;;;18.60;16.33;;;;;;;;;;5039308;28;20415;-81
2021/06/03 06:01:50;;;;;;;17.85;15.95;;;;;;;;;;5038515;28;20399;-82
2021/06/03 06:05:57;;;;;;;18.58;16.67;;;;;;;;;;5037721;28;21068;-81
2021/06/03 06:07:06;;;;;;;18.85;16.55;;;;;;;;;;5038040;28;20755;-81
2021/06/03 06:09:32;;;;;;;19.40;17.38;;;;;;;;;;5039454;28;20419;-82
2021/06/03 06:11:59;;;;;;;21.02;18.15;;;;;;;;;;5038735;28;20415;-82
2021/06/03 06:14:25;;;;;;;19.27;17.48;;;;;;;;;;5038384;28;20771;-82
2021/06/03 06:16:53;;;;;;;19.20;17.38;;;;;;;;;;5039093;28;20408;-81
2021/06/03 06:19:19;;;;;;;19.77;17.77;;;;;;;;;;5033243;28;20399;-82
2021/06/03 06:21:46;;;;;;;19.67;17.67;;;;;;;;;;5037768;28;20399;-81
2021/06/03 06:24:12;;;;;;;19.97;17.87;;;;;;;;;;5031390;28;20424;-82
2021/06/03 06:26:39;;;;;;;19.90;17.90;;;;;;;;;;5037794;28;20403;-82
2021/06/03 06:29:05;;;;;;;19.85;17.75;;;;;;;;;;5038734;28;20428;-82
2021/06/03 06:31:32;;;;;;;22.20;19.97;;;;;;;;;;5035545;28;20916;-81
2021/06/03 06:34:00;;;;;;;23.20;19.95;;;;;;;;;;5036372;28;20403;-81
2021/06/03 06:36:26;;;;;;;20.30;18.10;;;;;;;;;;5034665;28;20408;-81
2021/06/03 06:38:53;;;;;;;20.67;17.98;;;;;;;;;;5041200;28;20403;-81
2021/06/03 06:41:19;;;;;;;19.98;17.85;;;;;;;;;;5040709;28;20400;-82
2021/06/03 06:43:46;;;;;;;20.52;18.42;;;;;;;;;;5042617;28;20399;-81
2021/06/03 06:46:12;;;;;;;21.50;19.30;;;;;;;;;;5041698;28;20483;-81
2021/06/03 06:48:39;;;;;;;20.00;18.00;;;;;;;;;;5041734;28;20426;-81
2021/06/03 06:51:08;;;;;;;18.63;16.63;;;;;;;;;;5041635;28;20405;-81
2021/06/03 06:53:34;;;;;;;17.35;15.65;;;;;;;;;;5040134;28;20406;-81
2021/06/03 06:56:01;;;;;;;17.25;15.45;;;;;;;;;;5035614;28;20401;-81
2021/06/03 06:58:28;;;;;;;18.53;16.20;;;;;;;;;;5043457;28;20422;-81
2021/06/03 07:00:55;;;;;;;17.88;15.98;;;;;;;;;;5040374;28;20400;-81
2021/06/03 07:03:22;;;;;;;17.83;15.98;;;;;;;;;;5040136;28;20491;-73
2021/06/03 07:05:48;;;;;;;16.58;14.73;;;;;;;;;;5034107;28;20402;-73
2021/06/03 07:08:17;;;;;;;17.73;15.88;;;;;;;;;;5035784;28;20420;-73
2021/06/03 07:10:45;;;;;;;19.80;16.55;;;;;;;;;;5034389;28;20878;-73
2021/06/03 07:13:11;;;;;;;18.10;15.65;;;;;;;;;;5042355;28;20400;-73
2021/06/03 07:15:38;;;;;;;14.60;13.10;;;;;;;;;;5037730;28;20399;-72
2021/06/03 07:18:05;;;;;;;14.13;12.73;;;;;;;;;;5038709;28;20911;-73
2021/06/03 07:20:31;;;;;;;15.50;13.90;;;;;;;;;;5037473;28;20410;-71
2021/06/03 07:23:04;;;;;;;15.55;13.32;;;;;;;;;;5038596;28;20439;-72
2021/06/03 07:25:33;;;;;;;15.65;14.00;;;;;;;;;;5038962;28;20473;-73
2021/06/03 07:28:00;;;;;;;15.73;13.30;;;;;;;;;;5040548;28;20422;-72
2021/06/03 07:30:27;;;;;;;16.03;12.13;;;;;;;;;;5040015;28;20403;-72
2021/06/03 07:32:54;;;;;;;17.33;13.55;;;;;;;;;;5038831;28;20404;-73
2021/06/03 07:35:23;;;;;;;15.45;12.52;;;;;;;;;;5040347;28;20442;-72
2021/06/03 07:37:50;;;;;;;11.48;10.38;;;;;;;;;;5038516;28;20407;-73
2021/06/03 07:40:18;;;;;;;11.02;9.13;;;;;;;;;;5039268;28;20777;-72
2021/06/03 07:42:47;;;;;;;10.13;9.05;;;;;;;;;;5038493;28;20403;-72
2021/06/03 07:45:15;;;;;;;10.25;9.27;;;;;;;;;;5039772;28;21002;-73
2021/06/03 07:47:42;;;;;;;10.63;9.60;;;;;;;;;;5039019;28;20590;-73
2021/06/03 07:50:10;;;;;;;11.37;9.60;;;;;;;;;;5037732;28;20444;-73
2021/06/03 07:52:37;;;;;;;11.20;10.02;;;;;;;;;;5040714;28;21001;-82
2021/06/03 07:55:05;;;;;;;10.70;9.70;;;;;;;;;;5039119;28;20411;-82
2021/06/03 07:57:32;;;;;;;9.98;9.07;;;;;;;;;;5033715;28;20758;-82
2021/06/03 08:00:00;;;;;;;10.05;9.05;;;;;;;;;;5040027;28;20469;-82
2021/06/03 08:02:27;;;;;;;9.50;8.32;;;;;;;;;;5037142;28;20515;-82
2021/06/03 08:04:53;;;;;;;10.23;9.20;;;;;;;;;;5040711;28;20404;-82
2021/06/03 08:07:20;;;;;;;11.40;9.10;;;;;;;;;;5035837;28;20435;-82
2021/06/03 08:09:46;;;;;;;10.88;9.73;;;;;;;;;;5038280;28;20424;-82
2021/06/03 08:12:14;;;;;;;12.30;11.23;;;;;;;;;;5039454;28;20468;-82
2021/06/03 08:14:40;;;;;;;11.25;10.07;;;;;;;;;;5038399;28;20414;-82
2021/06/03 08:17:08;;;;;;;9.68;8.68;;;;;;;;;;5040202;28;20430;-82
2021/06/03 08:19:34;;;;;;;9.30;8.45;;;;;;;;;;5037969;28;20409;-83
2021/06/03 08:22:02;;;;;;;10.65;9.52;;;;;;;;;;5037880;28;20417;-82
2021/06/03 08:24:28;;;;;;;10.70;9.70;;;;;;;;;;5038620;28;20399;-82
2021/06/03 08:26:55;;;;;;;10.73;9.32;;;;;;;;;;5036938;28;20414;-82
2021/06/03 08:29:22;;;;;;;10.90;9.77;;;;;;;;;;5039840;28;20507;-83
2021/06/03 08:31:49;;;;;;;9.95;9.05;;;;;;;;;;5037881;28;20477;-82
2021/06/03 08:34:18;;;;;;;11.50;10.00;;;;;;;;;;5036573;28;20405;-83
2021/06/03 08:36:44;;;;;;;10.77;9.68;;;;;;;;;;5036830;28;20427;-82
2021/06/03 08:39:11;;;;;;;9.07;8.27;;;;;;;;;;5039766;28;20419;-82
2021/06/03 08:41:39;;;;;;;8.68;7.88;;;;;;;;;;5036235;28;20404;-81
2021/06/03 08:44:07;;;;;;;8.95;7.95;;;;;;;;;;5036710;28;20393;-82
2021/06/03 08:46:34;;;;;;;9.57;8.57;;;;;;;;;;5038606;28;20422;-82
2021/06/03 08:49:02;;;;;;;10.80;9.02;;;;;;;;;;5037311;28;20432;-82
2021/06/03 08:51:30;;;;;;;9.65;8.80;;;;;;;;;;5040061;28;20453;-82
2021/06/03 08:53:57;;;;;;;10.80;9.80;;;;;;;;;;5076639;28;20570;-82
2021/06/03 08:56:24;;;;;;;10.50;9.25;;;;;;;;;;5075600;28;20407;-82
2021/06/03 08:58:52;;;;;;;11.20;9.82;;;;;;;;;;5072507;28;20408;-82
2021/06/03 09:01:20;;;;;;;11.40;7.75;;;;;;;;;;5072109;28;20395;-82
2021/06/03 09:03:47;;;;;;;10.23;9.20;;;;;;;;;;5083450;28;20495;-81
2021/06/03 09:06:16;;;;;;;9.65;8.50;;;;;;;;;;5082849;28;20486;-81
2021/06/03 09:08:49;;;;;;;9.82;8.27;;;;;;;;;;5072639;28;21296;-81
2021/06/03 09:11:19;;;;;;;11.48;9.18;;;;;;;;;;5075194;28;20434;-82
2021/06/03 09:13:49;;;;;;;10.43;9.43;;;;;;;;;;5079793;28;20401;-82
2021/06/03 09:16:19;;;;;;;11.20;9.80;;;;;;;;;;5077719;28;20442;-81
2021/06/03 09:18:48;;;;;;;12.73;11.00;;;;;;;;;;5084735;28;20536;-81
2021/06/03 09:21:17;;;;;;;10.73;9.73;;;;;;;;;;5079477;28;20404;-81
2021/06/03 09:23:46;;;;;;;10.73;9.65;;;;;;;;;;5082846;28;20528;-81
2021/06/03 09:26:14;;;;;;;12.35;11.05;;;;;;;;;;5084219;28;20794;-81
2021/06/03 09:28:42;;;;;;;11.32;10.30;;;;;;;;;;5084619;28;20419;-81
2021/06/03 09:31:14;;;;;;;11.07;9.80;;;;;;;;;;5080933;28;20407;-81
2021/06/03 09:33:48;;;;;;;11.68;10.57;;;;;;;;;;5074701;28;20887;-83
2021/06/03 09:36:16;;;;;;;9.73;8.73;;;;;;;;;;5079575;28;20825;-83
2021/06/03 09:38:54;;;;;;;9.18;8.27;;;;;;;;;;5075190;28;20404;-83
2021/06/03 09:41:22;;;;;;;9.18;8.23;;;;;;;;;;5076086;28;20401;-83
2021/06/03 09:43:48;;;;;;;9.70;8.60;;;;;;;;;;5088487;28;20428;-82
2021/06/03 09:46:17;;;;;;;9.02;8.13;;;;;;;;;;5072530;28;20451;-83
2021/06/03 09:48:45;;;;;;;9.55;8.55;;;;;;;;;;5079038;28;20421;-83
2021/06/03 09:51:20;;;;;;;10.13;9.20;;;;;;;;;;5076772;28;20950;-82
2021/06/03 09:53:59;;;;;;;10.20;9.18;;;;;;;;;;5078939;28;20422;-83
2021/06/03 09:56:28;;;;;;;11.98;10.48;;;;;;;;;;5069621;28;20412;-82
2021/06/03 09:58:55;;;;;;;13.10;11.90;;;;;;;;;;5053726;28;20409;-84
2021/06/03 10:01:41;;;;;;;11.55;10.50;;;;;;;;;;5061995;28;20406;-82
2021/06/03 10:04:09;;;;;;;11.85;10.65;;;;;;;;;;5071454;28;20727;-83
2021/06/03 10:06:53;;;;;;;14.40;12.57;;;;;;;;;;5069062;28;20493;-83
2021/06/03 10:09:34;;;;;;;13.63;12.23;;;;;;;;;;5066999;28;20416;-83
2021/06/03 10:12:01;;;;;;;12.57;11.27;;;;;;;;;;5066898;28;20433;-82
2021/06/03 10:14:28;;;;;;;12.80;11.27;;;;;;;;;;5070643;28;20483;-82
2021/06/03 10:16:54;;;;;;;13.70;11.77;;;;;;;;;;5068636;28;20407;-82
2021/06/03 10:19:22;;;;;;;12.70;11.50;;;;;;;;;;5067266;28;20413;-83
2021/06/03 10:22:11;;;;;;;10.90;9.80;;;;;;;;;;5068429;28;20399;-83
2021/06/03 10:25:01;;;;;;;13.73;12.15;;;;;;;;;;5066011;28;20404;-82
2021/06/03 10:27:30;;;;;;;12.20;11.03;;;;;;;;;;5063298;28;20509;-83
2021/06/03 10:29:57;;;;;;;14.63;13.15;;;;;;;;;;5066472;28;20497;-83
2021/06/03 10:32:27;;;;;;;13.85;12.55;;;;;;;;;;5070368;28;20408;-83
2021/06/03 10:34:55;;;;;;;13.27;11.98;;;;;;;;;;5064296;28;20399;-83
2021/06/03 10:37:23;;;;;;;15.05;13.60;;;;;;;;;;5068224;28;20396;-83
2021/06/03 10:39:51;;;;;;;12.93;11.52;;;;;;;;;;5070872;28;20419;-82
2021/06/03 10:42:20;;;;;;;14.45;13.05;;;;;;;;;;5061633;28;20443;-84
2021/06/03 10:44:50;;;;;;;15.63;13.97;;;;;;;;;;5073494;28;20396;-82
2021/06/03 10:47:17;;;;;;;15.70;14.05;;;;;;;;;;5070804;28;20769;-83
2021/06/03 10:49:45;;;;;;;12.70;10.85;;;;;;;;;;5065447;28;20435;-83
2021/06/03 10:52:15;;;;;;;15.87;13.13;;;;;;;;;;5070969;28;20455;-83
2021/06/03 10:54:45;;;;;;;13.02;11.70;;;;;;;;;;5077290;28;20458;-83
2021/06/03 10:57:13;;;;;;;12.80;11.35;;;;;;;;;;5075078;28;20517;-83
2021/06/03 10:59:42;;;;;;;14.80;11.77;;;;;;;;;;5077880;28;20889;-84
2021/06/03 11:02:10;;;;;;;13.63;11.13;;;;;;;;;;5080504;28;20918;-82
2021/06/03 11:04:38;;;;;;;12.50;10.70;;;;;;;;;;5083946;28;20417;-83
2021/06/03 11:07:06;;;;;;;12.27;10.20;;;;;;;;;;5084464;28;20409;-82
2021/06/03 11:09:34;;;;;;;13.15;11.70;;;;;;;;;;5088207;28;20459;-83
2021/06/03 11:12:13;;;;;;;12.75;11.55;;;;;;;;;;5081049;28;20399;-83
2021/06/03 11:15:05;;;;;;;14.10;12.63;;;;;;;;;;5075229;28;20972;-83
2021/06/03 11:17:56;;;;;;;11.60;10.40;;;;;;;;;;5083761;28;20492;-83
2021/06/03 11:20:43;;;;;;;12.83;11.43;;;;;;;;;;5086322;28;20928;-83
2021/06/03 11:23:58;;;;;;;12.23;11.13;;;;;;;;;;5082847;28;20400;-83
2021/06/03 11:26:50;;;;;;;12.30;11.02;;;;;;;;;;5063589;28;20427;-84
2021/06/03 11:29:19;;;;;;;11.65;10.50;;;;;;;;;;5073914;28;20422;-83
2021/06/03 11:31:49;;;;;;;13.63;12.30;;;;;;;;;;5081650;28;20398;-83
2021/06/03 11:34:19;;;;;;;15.15;11.25;;;;;;;;;;5084305;28;20910;-83
2021/06/03 11:36:57;;;;;;;14.75;12.90;;;;;;;;;;5088412;28;20479;-82
2021/06/03 11:39:40;;;;;;;12.88;11.50;;;;;;;;;;5084721;28;20949;-83
2021/06/03 11:42:40;;;;;;;11.45;10.20;;;;;;;;;;5082995;28;20409;-83
2021/06/03 11:45:30;;;;;;;11.80;10.60;;;;;;;;;;5077185;28;20416;-83
2021/06/03 11:48:17;;;;;;;12.05;10.40;;;;;;;;;;5084795;28;20402;-83
2021/06/03 11:51:05;;;;;;;14.20;12.70;;;;;;;;;;5084115;28;20419;-83
2021/06/03 11:53:33;;;;;;;11.50;10.32;;;;;;;;;;5077451;28;20413;-83
2021/06/03 11:56:16;;;;;;;10.98;9.88;;;;;;;;;;5087434;28;20404;-83
2021/06/03 11:58:49;;;;;;;12.13;10.93;;;;;;;;;;5083017;28;20457;-83
2021/06/03 12:01:34;;;;;;;12.07;10.90;;;;;;;;;;5083277;28;20434;-81
2021/06/03 12:04:13;;;;;;;14.25;11.98;;;;;;;;;;5085081;28;20422;-83
2021/06/03 12:06:41;;;;;;;12.13;10.32;;;;;;;;;;5081189;28;20504;-83
2021/06/03 12:09:32;;;;;;;13.00;10.82;;;;;;;;;;5069885;28;20428;-82
2021/06/03 12:12:03;;;;;;;13.50;12.20;;;;;;;;;;5083208;28;20409;-83
2021/06/03 12:14:32;;;;;;;12.05;10.85;;;;;;;;;;5084930;28;20455;-83
2021/06/03 12:16:59;;;;;;;11.57;10.38;;;;;;;;;;5080797;28;21557;-83
2021/06/03 12:19:29;;;;;;;10.13;9.23;;;;;;;;;;5082300;28;20477;-83
2021/06/03 12:21:58;;;;;;;10.25;9.20;;;;;;;;;;5083621;28;20494;-82
2021/06/03 12:24:35;;;;;;;10.40;9.30;;;;;;;;;;5082037;28;20825;-83
2021/06/03 12:27:03;;;;;;;11.23;10.23;;;;;;;;;;5091616;28;20409;-84
2021/06/03 12:29:33;;;;;;;12.23;10.07;;;;;;;;;;5086040;28;20452;-84
2021/06/03 12:31:59;;;;;;;11.13;10.13;;;;;;;;;;5088683;28;20681;-83
2021/06/03 12:34:29;;;;;;;10.75;9.65;;;;;;;;;;5088509;28;20398;-83
2021/06/03 12:36:56;;;;;;;12.55;10.15;;;;;;;;;;5086117;28;20964;-83
2021/06/03 12:39:23;;;;;;;9.75;8.60;;;;;;;;;;5092138;28;20781;-83
2021/06/03 12:41:55;;;;;;;11.90;10.70;;;;;;;;;;5072496;28;20772;-83
2021/06/03 12:44:22;;;;;;;12.77;9.70;;;;;;;;;;5086380;28;20837;-83
2021/06/03 12:46:52;;;;;;;10.55;9.38;;;;;;;;;;5086098;28;20459;-83
2021/06/03 12:49:20;;;;;;;9.25;8.35;;;;;;;;;;5077615;28;20417;-84
2021/06/03 12:51:51;;;;;;;10.00;8.98;;;;;;;;;;5085507;28;20543;-84
2021/06/03 12:54:27;;;;;;;10.95;8.77;;;;;;;;;;5073009;28;20731;-83
2021/06/03 12:56:54;;;;;;;11.88;9.00;;;;;;;;;;5082931;28;20391;-84
2021/06/03 12:59:23;;;;;;;11.93;9.70;;;;;;;;;;5080548;28;20475;-83
2021/06/03 13:01:57;;;;;;;10.80;9.48;;;;;;;;;;5083910;28;20605;-83
2021/06/03 13:04:33;;;;;;;10.55;9.18;;;;;;;;;;5065531;28;20820;-84
2021/06/03 13:07:02;;;;;;;10.82;9.73;;;;;;;;;;5086950;28;20480;-84
2021/06/03 13:09:28;;;;;;;9.50;8.50;;;;;;;;;;5079740;28;20494;-84
2021/06/03 13:12:05;;;;;;;9.75;8.75;;;;;;;;;;5088894;28;20476;-83
2021/06/03 13:14:38;;;;;;;7.90;7.20;;;;;;;;;;5085693;28;20968;-84
2021/06/03 13:17:09;;;;;;;10.35;7.07;;;;;;;;;;5068403;28;20398;-84
2021/06/03 13:19:36;;;;;;;9.23;7.23;;;;;;;;;;5074384;28;20402;-84
2021/06/03 13:22:05;;;;;;;8.98;7.90;;;;;;;;;;5080317;28;21073;-83
2021/06/03 13:24:33;;;;;;;6.85;6.15;;;;;;;;;;5083870;28;20879;-84
2021/06/03 13:27:04;;;;;;;7.88;6.40;;;;;;;;;;5078628;28;20514;-84
2021/06/03 13:29:39;;;;;;;6.20;5.60;;;;;;;;;;5075300;28;20423;-84
2021/06/03 13:32:07;;;;;;;9.77;8.00;;;;;;;;;;5085382;28;20444;-84
2021/06/03 13:34:38;;;;;;;7.55;6.85;;;;;;;;;;5079900;28;20430;-84
2021/06/03 13:37:30;;;;;;;7.85;7.10;;;;;;;;;;5074098;28;20935;-84
2021/06/03 13:40:14;;;;;;;9.40;6.60;;;;;;;;;;5077849;28;20458;-84
2021/06/03 13:43:15;;;;;;;8.15;7.35;;;;;;;;;;5077603;28;20399;-84
2021/06/03 13:45:45;;;;;;;8.77;7.93;;;;;;;;;;5079005;28;20408;-84
2021/06/03 13:48:19;;;;;;;8.13;7.40;;;;;;;;;;5083358;28;20411;-84
2021/06/03 13:50:53;;;;;;;8.10;7.00;;;;;;;;;;5080647;28;20504;-84
2021/06/03 13:53:38;;;;;;;7.10;5.90;;;;;;;;;;5086720;28;20396;-84
2021/06/03 13:59:11;;;;;;;8.05;6.07;;;;;;;;;;5050302;28;20430;-84
2021/06/03 14:01:43;;;;;;;10.25;6.65;;;;;;;;;;5084575;28;20463;-83
2021/06/03 14:04:13;;;;;;;9.07;6.50;;;;;;;;;;5080254;28;20732;-84
2021/06/03 14:06:45;;;;;;;9.02;7.45;;;;;;;;;;5080950;28;21464;-84
2021/06/03 14:09:28;;;;;;;6.10;5.60;;;;;;;;;;5082325;28;20936;-85
2021/06/03 14:12:11;;;;;;;6.60;5.63;;;;;;;;;;5082475;28;20439;-84
2021/06/03 14:14:39;;;;;;;5.93;5.32;;;;;;;;;;5078453;28;20785;-84
2021/06/03 14:17:14;;;;;;;6.28;5.18;;;;;;;;;;5077237;28;20798;-84
2021/06/03 14:19:46;;;;;;;6.35;4.65;;;;;;;;;;5060381;28;20768;-84
2021/06/03 14:22:20;;;;;;;5.90;4.57;;;;;;;;;;5075525;28;20872;-84
2021/06/03 14:24:56;;;;;;;5.22;4.70;;;;;;;;;;5059750;28;20459;-84
2021/06/03 14:27:29;;;;;;;5.20;4.10;;;;;;;;;;5072934;28;20762;-84
2021/06/03 14:30:02;;;;;;;5.22;4.50;;;;;;;;;;5074813;28;20430;-84
2021/06/03 14:32:32;;;;;;;5.25;4.72;;;;;;;;;;5062874;28;20437;-84
2021/06/03 14:35:12;;;;;;;4.70;4.20;;;;;;;;;;5076276;28;20879;-84
2021/06/03 14:37:39;;;;;;;6.38;4.35;;;;;;;;;;5056310;28;20473;-84
2021/06/03 14:40:17;;;;;;;7.28;4.57;;;;;;;;;;5064490;28;20766;-84